Time;durP1;ratioP1;P1;durP2;ratioP2;P2;SDS_P1;SDS_P2;PMS_P1;PMS_P2;Temp;Humidity;BMP_temperature;BMP_pressure;BME280_temperature;BME280_humidity;BME280_pressure;Samples;Min_cycle;Max_cycle;Signal;HPM_P1;HPM_P2
2023/07/30 00:01:48;;;;;;;10.05;2.30;;;14.90;99.90;;;;;;5081246;28;20039;-73
2023/07/30 00:04:13;;;;;;;7.28;2.17;;;14.90;99.90;;;;;;5076895;28;20050;-73
2023/07/30 00:06:39;;;;;;;8.27;2.63;;;14.80;99.90;;;;;;5078143;28;20379;-73
2023/07/30 00:09:04;;;;;;;6.20;2.33;;;14.80;99.90;;;;;;5093188;28;20566;-73
2023/07/30 00:11:30;;;;;;;7.57;2.10;;;14.80;99.90;;;;;;5091817;28;20039;-73
2023/07/30 00:13:55;;;;;;;9.60;2.55;;;14.80;99.90;;;;;;5093352;28;20031;-73
2023/07/30 00:16:21;;;;;;;6.95;2.15;;;14.70;99.90;;;;;;5085688;28;20028;-73
2023/07/30 00:18:46;;;;;;;8.73;2.63;;;14.70;99.90;;;;;;5078532;28;20480;-73
2023/07/30 00:21:13;;;;;;;7.53;2.13;;;14.70;99.90;;;;;;5077237;28;20028;-73
2023/07/30 00:23:38;;;;;;;5.47;2.40;;;14.70;99.90;;;;;;5076641;28;20054;-73
2023/07/30 00:26:04;;;;;;;10.40;2.35;;;14.70;99.90;;;;;;5082205;28;20111;-73
2023/07/30 00:28:29;;;;;;;5.50;2.25;;;14.70;99.90;;;;;;5078550;28;20107;-73
2023/07/30 00:30:55;;;;;;;10.35;2.60;;;14.60;99.90;;;;;;5061876;28;20500;-73
2023/07/30 00:33:22;;;;;;;11.85;3.38;;;14.60;99.90;;;;;;5084642;28;20048;-73
2023/07/30 00:35:47;;;;;;;8.80;3.00;;;14.50;99.90;;;;;;5074297;28;20033;-74
2023/07/30 00:38:14;;;;;;;7.18;2.50;;;14.50;99.90;;;;;;5083548;28;20503;-74
2023/07/30 00:40:41;;;;;;;9.18;2.55;;;14.50;99.90;;;;;;5072058;28;20044;-74
2023/07/30 00:43:06;;;;;;;8.95;3.05;;;14.50;99.90;;;;;;5087014;28;20378;-74
2023/07/30 00:45:32;;;;;;;9.85;2.42;;;14.50;99.90;;;;;;5084738;28;20020;-73
2023/07/30 00:47:58;;;;;;;6.30;2.60;;;14.50;99.90;;;;;;5047027;28;20487;-74
2023/07/30 00:50:23;;;;;;;9.85;3.17;;;14.40;99.90;;;;;;5079260;28;20111;-73
2023/07/30 00:52:49;;;;;;;10.80;2.92;;;14.50;99.90;;;;;;5070516;28;20435;-72
2023/07/30 00:55:15;;;;;;;14.75;3.30;;;14.50;99.90;;;;;;5070312;28;20032;-72
2023/07/30 00:57:41;;;;;;;9.43;2.85;;;14.40;99.90;;;;;;5071478;28;20047;-72
2023/07/30 01:00:08;;;;;;;5.78;2.45;;;14.40;99.90;;;;;;5071794;28;20372;-71
2023/07/30 01:02:35;;;;;;;8.02;2.92;;;14.40;99.90;;;;;;5085313;28;20036;-71
2023/07/30 01:05:03;;;;;;;9.55;3.50;;;14.30;99.90;;;;;;5077239;28;20618;-72
2023/07/30 01:07:30;;;;;;;12.35;2.90;;;14.30;99.90;;;;;;5068794;28;20384;-72
2023/07/30 01:09:56;;;;;;;8.50;2.63;;;14.30;99.90;;;;;;5076162;28;20103;-72
2023/07/30 01:12:22;;;;;;;6.93;2.58;;;14.30;99.90;;;;;;5074486;28;20027;-74
2023/07/30 01:14:48;;;;;;;10.18;2.63;;;14.20;99.90;;;;;;5086651;28;20020;-72
2023/07/30 01:17:15;;;;;;;9.45;2.05;;;14.20;99.90;;;;;;5070292;28;20421;-72
2023/07/30 01:19:40;;;;;;;10.15;2.58;;;14.20;99.90;;;;;;5050751;28;20131;-71
2023/07/30 01:22:06;;;;;;;7.70;2.92;;;14.20;99.90;;;;;;5075660;28;20091;-74
2023/07/30 01:24:31;;;;;;;5.70;2.45;;;14.20;99.90;;;;;;5071594;28;20032;-72
2023/07/30 01:27:02;;;;;;;7.00;2.50;;;14.20;99.90;;;;;;5075531;28;20116;-71
2023/07/30 01:29:42;;;;;;;8.95;2.90;;;14.20;99.90;;;;;;5076976;28;20032;-71
2023/07/30 01:32:11;;;;;;;10.82;2.75;;;14.20;99.90;;;;;;5078006;28;20074;-72
2023/07/30 01:34:38;;;;;;;6.47;2.28;;;14.20;99.90;;;;;;5075122;28;20025;-72
2023/07/30 01:37:11;;;;;;;10.38;2.60;;;14.20;99.90;;;;;;5073852;28;20045;-72
2023/07/30 01:39:39;;;;;;;7.28;2.85;;;14.10;99.90;;;;;;5075981;28;20046;-71
2023/07/30 01:42:05;;;;;;;7.55;2.60;;;14.20;99.90;;;;;;5085705;28;20379;-71
2023/07/30 01:44:30;;;;;;;9.82;2.58;;;14.20;99.90;;;;;;5075621;28;20028;-72
2023/07/30 01:46:56;;;;;;;6.55;2.58;;;14.10;99.90;;;;;;5071798;28;20099;-73
2023/07/30 01:49:22;;;;;;;10.18;2.95;;;14.10;99.90;;;;;;5070906;28;20043;-71
2023/07/30 01:51:48;;;;;;;7.38;2.92;;;14.10;99.90;;;;;;5077039;28;20060;-72
2023/07/30 01:54:13;;;;;;;9.90;3.28;;;14.10;99.90;;;;;;5055525;28;20086;-71
2023/07/30 01:56:39;;;;;;;15.43;3.42;;;14.10;99.90;;;;;;5073872;28;20023;-72
2023/07/30 01:59:05;;;;;;;10.13;3.40;;;14.10;99.90;;;;;;5073235;28;20094;-71
2023/07/30 02:01:30;;;;;;;8.50;3.78;;;14.10;99.90;;;;;;5076661;28;20035;-71
2023/07/30 02:03:56;;;;;;;11.43;3.33;;;14.20;99.90;;;;;;5079360;28;20028;-71
2023/07/30 02:06:21;;;;;;;9.23;3.40;;;14.20;99.90;;;;;;5075114;28;20065;-71
2023/07/30 02:08:47;;;;;;;14.95;3.45;;;14.10;99.90;;;;;;5073080;28;20043;-71
2023/07/30 02:11:12;;;;;;;10.85;2.97;;;14.20;99.90;;;;;;5076944;28;20489;-71
2023/07/30 02:13:38;;;;;;;11.27;2.78;;;14.20;99.90;;;;;;5074270;28;20032;-71
2023/07/30 02:16:04;;;;;;;19.65;3.45;;;14.20;99.90;;;;;;5048002;28;20031;-71
2023/07/30 02:18:29;;;;;;;10.60;3.83;;;14.20;99.90;;;;;;5077936;28;20091;-72
2023/07/30 02:20:55;;;;;;;8.88;3.00;;;14.20;99.90;;;;;;5067979;28;20352;-72
2023/07/30 02:23:20;;;;;;;12.27;3.63;;;14.20;99.90;;;;;;5077740;28;20085;-72
2023/07/30 02:25:46;;;;;;;12.15;3.72;;;14.30;99.90;;;;;;5072893;28;20028;-72
2023/07/30 02:28:11;;;;;;;14.88;3.55;;;14.30;99.90;;;;;;5072785;28;20031;-72
2023/07/30 02:30:37;;;;;;;10.52;3.28;;;14.30;99.90;;;;;;5071542;28;20547;-71
2023/07/30 02:33:02;;;;;;;17.10;4.15;;;14.30;99.90;;;;;;5077669;28;20425;-72
2023/07/30 02:35:28;;;;;;;13.15;3.75;;;14.40;99.90;;;;;;5073806;28;20050;-72
2023/07/30 02:37:53;;;;;;;13.82;3.58;;;14.40;99.90;;;;;;5078352;28;20044;-72
2023/07/30 02:40:19;;;;;;;15.30;4.07;;;14.50;99.90;;;;;;5078470;28;20387;-72
2023/07/30 02:42:45;;;;;;;13.65;3.92;;;14.50;99.90;;;;;;5075813;28;20035;-72
2023/07/30 02:45:11;;;;;;;14.52;4.00;;;14.60;99.90;;;;;;5051060;28;20400;-72
2023/07/30 02:47:36;;;;;;;14.75;5.10;;;14.60;99.90;;;;;;5074599;28;20103;-71
2023/07/30 02:50:04;;;;;;;14.23;5.47;;;14.70;99.90;;;;;;5075265;28;20112;-71
2023/07/30 02:52:29;;;;;;;15.75;5.30;;;14.70;99.90;;;;;;5071439;28;20025;-71
2023/07/30 02:54:54;;;;;;;14.18;5.05;;;14.70;99.90;;;;;;5069939;28;20095;-72
2023/07/30 02:57:20;;;;;;;11.57;4.95;;;14.70;99.90;;;;;;5076233;28;20448;-72
2023/07/30 02:59:45;;;;;;;15.70;5.60;;;14.70;99.90;;;;;;5081897;28;20044;-71
2023/07/30 03:02:11;;;;;;;11.40;4.40;;;14.70;99.90;;;;;;5088879;28;20039;-72
2023/07/30 03:04:37;;;;;;;21.75;5.72;;;14.60;99.90;;;;;;5072594;28;20025;-72
2023/07/30 03:07:02;;;;;;;18.75;4.90;;;14.60;99.90;;;;;;5070961;28;20070;-71
2023/07/30 03:09:28;;;;;;;16.25;6.57;;;14.50;99.90;;;;;;5082299;28;20484;-72
2023/07/30 03:11:54;;;;;;;15.15;5.63;;;14.40;99.90;;;;;;5074017;28;20077;-72
2023/07/30 03:14:22;;;;;;;14.65;5.28;;;14.40;99.90;;;;;;5060371;28;20472;-72
2023/07/30 03:16:48;;;;;;;14.25;5.88;;;14.40;99.90;;;;;;5078317;28;20043;-72
2023/07/30 03:19:14;;;;;;;17.85;6.47;;;14.30;99.90;;;;;;5076092;28;20036;-72
2023/07/30 03:21:40;;;;;;;17.58;6.93;;;14.30;99.90;;;;;;5036447;28;20159;-72
2023/07/30 03:24:05;;;;;;;13.90;6.90;;;14.30;99.90;;;;;;5069788;28;20103;-72
2023/07/30 03:26:31;;;;;;;21.02;6.55;;;14.20;99.90;;;;;;5072235;28;20036;-72
2023/07/30 03:28:56;;;;;;;19.80;7.10;;;14.20;99.90;;;;;;5082315;28;20074;-72
2023/07/30 03:31:22;;;;;;;16.85;7.07;;;14.20;99.90;;;;;;5065981;28;20024;-72
2023/07/30 03:33:48;;;;;;;16.80;6.78;;;14.20;99.90;;;;;;5082722;28;20043;-72
2023/07/30 03:36:14;;;;;;;14.70;7.05;;;14.20;99.90;;;;;;5083894;28;20473;-72
2023/07/30 03:38:40;;;;;;;21.10;7.43;;;14.20;99.90;;;;;;5088114;28;20068;-72
2023/07/30 03:41:06;;;;;;;20.23;7.32;;;14.20;99.90;;;;;;5079719;28;20025;-71
2023/07/30 03:43:33;;;;;;;24.73;7.45;;;14.30;99.90;;;;;;5078746;28;20042;-72
2023/07/30 03:45:58;;;;;;;23.40;7.57;;;14.30;99.90;;;;;;5081862;28;20515;-72
2023/07/30 03:48:24;;;;;;;17.73;7.30;;;14.40;99.90;;;;;;5086173;28;20036;-72
2023/07/30 03:50:49;;;;;;;24.05;8.27;;;14.40;99.90;;;;;;5090235;28;20020;-72
2023/07/30 03:53:15;;;;;;;21.10;8.18;;;14.50;99.90;;;;;;5066873;28;20095;-72
2023/07/30 03:55:41;;;;;;;20.40;7.40;;;14.50;99.90;;;;;;5083181;28;20112;-72
2023/07/30 03:58:06;;;;;;;17.23;7.43;;;14.60;99.90;;;;;;5077693;28;20028;-72
2023/07/30 04:00:32;;;;;;;22.85;8.65;;;14.60;99.90;;;;;;5089825;28;20069;-72
2023/07/30 04:02:58;;;;;;;26.70;9.00;;;14.70;99.90;;;;;;5089846;28;20020;-72
2023/07/30 04:05:23;;;;;;;19.67;7.35;;;14.70;99.90;;;;;;5066198;28;20028;-72
2023/07/30 04:07:49;;;;;;;19.80;8.82;;;14.80;99.90;;;;;;5075669;28;20025;-71
2023/07/30 04:10:15;;;;;;;21.45;8.23;;;14.80;99.90;;;;;;5093817;28;20028;-72
2023/07/30 04:12:40;;;;;;;24.40;8.48;;;14.90;99.90;;;;;;5082289;28;20143;-72
2023/07/30 04:15:06;;;;;;;27.13;9.07;;;14.90;99.90;;;;;;5093299;28;20498;-72
2023/07/30 04:17:32;;;;;;;17.75;8.10;;;15.00;99.90;;;;;;5081815;28;20036;-72
2023/07/30 04:19:57;;;;;;;23.30;9.05;;;15.00;99.90;;;;;;5084439;28;20089;-72
2023/07/30 04:22:23;;;;;;;21.67;10.18;;;15.00;99.90;;;;;;5062815;28;20039;-72
2023/07/30 04:24:48;;;;;;;26.27;9.02;;;15.00;99.90;;;;;;5071445;28;20047;-72
2023/07/30 04:27:14;;;;;;;16.58;8.55;;;15.10;99.90;;;;;;5074220;28;20110;-72
2023/07/30 04:29:39;;;;;;;23.25;8.98;;;15.10;99.90;;;;;;5082144;28;20074;-72
2023/07/30 04:32:06;;;;;;;21.67;9.80;;;15.10;99.90;;;;;;5087120;28;20046;-72
2023/07/30 04:34:31;;;;;;;25.20;10.18;;;15.10;99.90;;;;;;5074410;28;20854;-72
2023/07/30 04:36:57;;;;;;;26.85;9.27;;;15.10;99.90;;;;;;5081280;28;20048;-72
2023/07/30 04:39:22;;;;;;;16.77;9.32;;;15.20;99.90;;;;;;5083442;28;20373;-72
2023/07/30 04:41:48;;;;;;;27.33;9.38;;;15.20;99.90;;;;;;5098146;28;20009;-72
2023/07/30 04:44:13;;;;;;;29.08;10.65;;;15.30;99.90;;;;;;5102478;28;20049;-72
2023/07/30 04:46:39;;;;;;;24.23;10.30;;;15.30;99.90;;;;;;5082551;28;20012;-72
2023/07/30 04:49:04;;;;;;;27.65;9.90;;;15.30;99.90;;;;;;5050198;28;20122;-72
2023/07/30 04:51:30;;;;;;;33.35;11.15;;;15.30;99.90;;;;;;5078525;28;20024;-72
2023/07/30 04:53:55;;;;;;;24.08;10.80;;;15.30;99.90;;;;;;5062896;28;20106;-72
2023/07/30 04:56:21;;;;;;;29.88;10.82;;;15.30;99.90;;;;;;5072554;28;20024;-72
2023/07/30 04:58:47;;;;;;;32.65;11.88;;;15.30;99.90;;;;;;5075008;28;20099;-72
2023/07/30 05:01:12;;;;;;;29.90;12.02;;;15.40;99.90;;;;;;5075228;28;20191;-72
2023/07/30 05:03:38;;;;;;;27.33;11.18;;;15.40;99.90;;;;;;5090755;28;20012;-72
2023/07/30 05:06:03;;;;;;;35.15;12.27;;;15.40;99.90;;;;;;5073625;28;20024;-72
2023/07/30 05:08:29;;;;;;;23.27;11.18;;;15.40;99.90;;;;;;5093774;28;20388;-72
2023/07/30 05:10:54;;;;;;;30.02;12.63;;;15.40;99.90;;;;;;5093162;28;20024;-71
2023/07/30 05:13:20;;;;;;;30.67;11.77;;;15.50;99.90;;;;;;5064482;28;20429;-72
2023/07/30 05:15:45;;;;;;;29.92;12.52;;;15.60;99.90;;;;;;5079657;28;20081;-72
2023/07/30 05:18:11;;;;;;;29.40;12.73;;;15.60;99.90;;;;;;5060214;28;20394;-72
2023/07/30 05:20:36;;;;;;;26.50;11.55;;;15.70;99.90;;;;;;5093265;28;20012;-71
2023/07/30 05:23:02;;;;;;;31.30;12.23;;;15.70;99.90;;;;;;5080998;28;20036;-72
2023/07/30 05:25:28;;;;;;;31.42;11.73;;;15.80;99.90;;;;;;5080088;28;20078;-73
2023/07/30 05:27:53;;;;;;;26.50;11.45;;;15.80;99.90;;;;;;5064833;28;20452;-71
2023/07/30 05:30:19;;;;;;;31.25;11.60;;;15.80;99.90;;;;;;5066560;28;20120;-73
2023/07/30 05:32:44;;;;;;;20.38;10.68;;;15.80;99.90;;;;;;5070877;28;20359;-72
2023/07/30 05:35:10;;;;;;;30.20;11.40;;;15.90;99.90;;;;;;5073416;28;20089;-72
2023/07/30 05:37:35;;;;;;;23.20;11.73;;;15.90;99.90;;;;;;5074360;28;20041;-71
2023/07/30 05:40:01;;;;;;;24.35;11.73;;;15.90;99.90;;;;;;5071636;28;20094;-72
2023/07/30 05:42:26;;;;;;;34.90;12.52;;;16.00;99.90;;;;;;5064041;28;20104;-72
2023/07/30 05:44:52;;;;;;;34.05;12.77;;;16.10;99.90;;;;;;5069837;28;20032;-72
2023/07/30 05:47:18;;;;;;;23.83;12.32;;;16.30;99.90;;;;;;5065009;28;20021;-71
2023/07/30 05:49:43;;;;;;;24.23;10.70;;;16.40;99.90;;;;;;5068027;28;20361;-71
2023/07/30 05:52:09;;;;;;;29.98;12.32;;;16.40;99.90;;;;;;5052240;28;20040;-72
2023/07/30 05:54:34;;;;;;;27.30;10.90;;;16.50;99.90;;;;;;5068973;28;20484;-71
2023/07/30 05:57:00;;;;;;;25.42;12.05;;;16.50;99.90;;;;;;5070353;28;20034;-72
2023/07/30 05:59:25;;;;;;;27.75;12.95;;;16.50;99.90;;;;;;5059874;28;20439;-73
2023/07/30 06:01:51;;;;;;;21.20;10.05;;;16.50;99.90;;;;;;5060527;28;20055;-73
2023/07/30 06:04:16;;;;;;;25.70;11.05;;;16.50;99.90;;;;;;5063042;28;20124;-73
2023/07/30 06:06:42;;;;;;;28.85;11.07;;;16.50;99.90;;;;;;5080660;28;20020;-73
2023/07/30 06:09:07;;;;;;;33.22;12.50;;;16.50;99.90;;;;;;5056211;28;20035;-73
2023/07/30 06:11:33;;;;;;;21.77;10.77;;;16.60;99.90;;;;;;5079721;28;20047;-72
2023/07/30 06:13:59;;;;;;;23.90;10.93;;;16.60;99.90;;;;;;5071044;28;20035;-72
2023/07/30 06:16:24;;;;;;;30.92;12.27;;;16.70;99.90;;;;;;5079043;28;20468;-72
2023/07/30 06:18:50;;;;;;;27.77;12.65;;;16.70;99.90;;;;;;5070060;28;20040;-73
2023/07/30 06:21:15;;;;;;;23.65;11.23;;;16.70;99.90;;;;;;5056977;28;20116;-72
2023/07/30 06:23:41;;;;;;;27.33;12.40;;;16.70;99.90;;;;;;5068321;28;20089;-72
2023/07/30 06:26:06;;;;;;;36.75;13.15;;;16.70;99.90;;;;;;5066950;28;20471;-72
2023/07/30 06:28:32;;;;;;;30.90;13.98;;;16.80;99.90;;;;;;5067692;28;20510;-72
2023/07/30 06:31:02;;;;;;;24.05;11.82;;;16.90;99.90;;;;;;5065512;28;20599;-72
2023/07/30 06:33:27;;;;;;;24.20;13.00;;;16.90;99.90;;;;;;5065347;28;20036;-73
2023/07/30 06:35:53;;;;;;;24.27;14.07;;;16.90;99.90;;;;;;5052939;28;20045;-72
2023/07/30 06:38:19;;;;;;;31.48;14.98;;;17.00;99.90;;;;;;5066700;28;20063;-72
2023/07/30 06:40:44;;;;;;;30.42;13.80;;;17.00;99.90;;;;;;5054755;28;20029;-73
2023/07/30 06:43:10;;;;;;;35.08;14.18;;;17.10;99.90;;;;;;5071121;28;20078;-72
2023/07/30 06:45:35;;;;;;;36.67;15.57;;;17.10;99.90;;;;;;5046372;28;20024;-72
2023/07/30 06:48:01;;;;;;;31.83;15.23;;;17.10;99.90;;;;;;5064590;28;20427;-72
2023/07/30 06:50:26;;;;;;;27.58;14.73;;;17.20;99.90;;;;;;5070087;28;20062;-73
2023/07/30 06:52:52;;;;;;;31.85;15.55;;;17.30;99.90;;;;;;5063662;28;20031;-72
2023/07/30 06:55:17;;;;;;;31.23;15.02;;;17.40;99.90;;;;;;5052390;28;20024;-73
2023/07/30 06:57:43;;;;;;;35.75;14.77;;;17.40;99.90;;;;;;5069497;28;20449;-73
2023/07/30 07:00:09;;;;;;;30.88;14.52;;;17.50;99.90;;;;;;5061207;28;20021;-72
2023/07/30 07:02:34;;;;;;;33.17;13.60;;;17.50;99.90;;;;;;5058880;28;20481;-73
2023/07/30 07:05:00;;;;;;;30.23;12.73;;;17.50;99.90;;;;;;5065045;28;20040;-72
2023/07/30 07:07:25;;;;;;;27.55;13.07;;;17.60;99.90;;;;;;5061063;28;20537;-73
2023/07/30 07:09:51;;;;;;;27.45;12.13;;;17.70;99.90;;;;;;5059607;28;20028;-73
2023/07/30 07:12:17;;;;;;;23.75;11.73;;;17.70;99.90;;;;;;5060372;28;20057;-72
2023/07/30 07:14:43;;;;;;;25.80;11.73;;;17.80;99.90;;;;;;5060689;28;20495;-73
2023/07/30 07:17:08;;;;;;;29.63;11.27;;;17.90;99.90;;;;;;5067494;28;20056;-72
2023/07/30 07:19:36;;;;;;;28.88;10.63;;;18.10;99.90;;;;;;5064890;28;20076;-72
2023/07/30 07:22:05;;;;;;;23.60;10.30;;;18.20;99.90;;;;;;5068753;28;20455;-72
2023/07/30 07:24:31;;;;;;;23.80;9.95;;;18.30;99.90;;;;;;5068477;28;20134;-72
2023/07/30 07:26:57;;;;;;;18.50;7.95;;;18.30;99.90;;;;;;5041696;28;20025;-72
2023/07/30 07:29:23;;;;;;;20.30;9.20;;;18.40;99.90;;;;;;5065611;28;20841;-72
2023/07/30 07:31:48;;;;;;;26.60;8.00;;;18.30;99.90;;;;;;5064555;28;20024;-72
2023/07/30 07:34:14;;;;;;;22.27;7.28;;;18.30;99.90;;;;;;5067071;28;20082;-72
2023/07/30 07:36:39;;;;;;;19.85;6.93;;;18.20;99.90;;;;;;5066748;28;20072;-72
2023/07/30 07:39:06;;;;;;;22.83;6.68;;;18.20;99.90;;;;;;5065357;28;20047;-73
2023/07/30 07:41:31;;;;;;;17.88;6.45;;;18.30;99.90;;;;;;5066476;28;20020;-72
2023/07/30 07:43:57;;;;;;;21.35;6.15;;;18.50;99.90;;;;;;5064897;28;20040;-72
2023/07/30 07:46:23;;;;;;;21.90;7.25;;;18.70;99.90;;;;;;5061318;28;20029;-72
2023/07/30 07:48:49;;;;;;;21.27;5.82;;;18.80;99.90;;;;;;5063290;28;20074;-72
2023/07/30 07:51:14;;;;;;;15.48;5.90;;;18.90;99.90;;;;;;5059456;28;20089;-73
2023/07/30 07:53:40;;;;;;;19.58;6.97;;;19.00;99.90;;;;;;5079684;28;20166;-72
2023/07/30 07:56:05;;;;;;;25.45;8.77;;;19.00;99.90;;;;;;5071538;28;20013;-72
2023/07/30 07:58:32;;;;;;;19.75;6.40;;;19.00;99.90;;;;;;5069636;28;20036;-72
2023/07/30 08:00:58;;;;;;;19.73;6.40;;;18.90;99.90;;;;;;5080012;28;20039;-72
2023/07/30 08:03:26;;;;;;;20.30;6.55;;;18.80;99.90;;;;;;5038359;28;20044;-72
2023/07/30 08:05:52;;;;;;;22.92;5.85;;;18.80;99.90;;;;;;5062096;28;20056;-72
2023/07/30 08:08:17;;;;;;;14.45;5.95;;;18.70;99.90;;;;;;5061395;28;20093;-72
2023/07/30 08:10:45;;;;;;;18.52;5.57;;;18.70;99.90;;;;;;5060361;28;20041;-72
2023/07/30 08:13:10;;;;;;;20.33;6.13;;;18.70;99.90;;;;;;5065127;28;20546;-72
2023/07/30 08:15:36;;;;;;;16.35;5.47;;;18.60;99.90;;;;;;5062855;28;20102;-72
2023/07/30 08:18:01;;;;;;;19.25;6.00;;;18.60;99.90;;;;;;5060649;28;20035;-72
2023/07/30 08:20:27;;;;;;;23.48;6.25;;;18.70;99.90;;;;;;5060478;28;20032;-72
2023/07/30 08:22:53;;;;;;;19.70;5.75;;;18.80;99.90;;;;;;5067476;28;20016;-72
2023/07/30 08:25:18;;;;;;;14.68;5.20;;;18.90;99.90;;;;;;5074956;28;20472;-72
2023/07/30 08:27:44;;;;;;;22.52;6.45;;;19.00;99.90;;;;;;5075860;28;20110;-72
2023/07/30 08:30:10;;;;;;;22.67;5.63;;;19.10;99.90;;;;;;5059268;28;20029;-72
2023/07/30 08:32:36;;;;;;;18.38;6.00;;;19.10;99.90;;;;;;5065679;28;20487;-72
2023/07/30 08:35:01;;;;;;;21.27;4.97;;;19.20;99.90;;;;;;5070643;28;20108;-72
2023/07/30 08:37:27;;;;;;;16.25;4.57;;;19.30;99.90;;;;;;5070121;28;20059;-72
2023/07/30 08:39:53;;;;;;;17.42;4.32;;;19.30;99.90;;;;;;5064391;28;20074;-72
2023/07/30 08:42:18;;;;;;;16.13;4.03;;;19.30;99.90;;;;;;5069321;28;20353;-72
2023/07/30 08:44:44;;;;;;;16.95;3.97;;;19.40;99.90;;;;;;5071155;28;20037;-72
2023/07/30 08:47:10;;;;;;;20.10;4.70;;;19.40;99.90;;;;;;5063838;28;20028;-72
2023/07/30 08:49:36;;;;;;;14.30;3.00;;;19.50;99.90;;;;;;5061693;28;20669;-72
2023/07/30 08:52:02;;;;;;;12.52;3.03;;;19.40;99.90;;;;;;5063695;28;20032;-72
2023/07/30 08:54:30;;;;;;;14.77;3.20;;;19.30;99.90;;;;;;5062072;28;20031;-72
2023/07/30 08:56:57;;;;;;;18.10;3.20;;;19.20;99.90;;;;;;5064637;28;20048;-72
2023/07/30 08:59:27;;;;;;;15.38;3.15;;;19.10;99.90;;;;;;5071076;28;20041;-72
2023/07/30 09:01:54;;;;;;;13.50;3.00;;;19.10;99.90;;;;;;5067027;28;20109;-72
2023/07/30 09:04:21;;;;;;;13.95;3.13;;;19.20;99.90;;;;;;5071899;28;20480;-74
2023/07/30 09:06:50;;;;;;;16.48;3.67;;;19.10;99.90;;;;;;5058767;28;20452;-72
2023/07/30 09:09:16;;;;;;;17.65;3.10;;;19.20;99.90;;;;;;5057478;28;20024;-72
2023/07/30 09:11:42;;;;;;;18.45;2.95;;;19.20;99.90;;;;;;5078588;28;20028;-73
2023/07/30 09:14:09;;;;;;;11.48;2.83;;;19.30;99.90;;;;;;5069185;28;20399;-72
2023/07/30 09:16:34;;;;;;;13.07;3.42;;;19.30;99.90;;;;;;5040295;28;20129;-73
2023/07/30 09:19:00;;;;;;;11.32;2.70;;;19.30;99.90;;;;;;5070037;28;20119;-72
2023/07/30 09:21:44;;;;;;;11.98;3.10;;;19.20;99.90;;;;;;5065277;28;20056;-72
2023/07/30 09:24:09;;;;;;;14.48;2.67;;;19.30;99.90;;;;;;5069334;28;20043;-72
2023/07/30 09:26:45;;;;;;;19.27;3.83;;;19.40;99.90;;;;;;5075029;28;20020;-73
2023/07/30 09:29:12;;;;;;;12.25;2.35;;;19.70;99.90;;;;;;5062719;28;20121;-72
2023/07/30 09:31:48;;;;;;;13.63;2.15;;;19.80;99.90;;;;;;5060450;28;20032;-72
2023/07/30 09:34:17;;;;;;;13.77;2.03;;;19.90;99.90;;;;;;5070826;28;20067;-72
2023/07/30 09:36:43;;;;;;;11.18;2.03;;;19.90;99.90;;;;;;5065745;28;20425;-73
2023/07/30 09:39:21;;;;;;;10.80;2.25;;;19.90;99.90;;;;;;5063958;28;20760;-73
2023/07/30 09:41:46;;;;;;;13.50;2.47;;;20.00;99.90;;;;;;5070020;28;20107;-73
2023/07/30 09:44:13;;;;;;;13.55;1.98;;;19.90;99.90;;;;;;5069895;28;20054;-73
2023/07/30 09:46:46;;;;;;;9.25;2.08;;;19.80;99.90;;;;;;5087975;28;20078;-73
2023/07/30 09:49:12;;;;;;;10.57;1.25;;;19.80;99.90;;;;;;5044651;28;20035;-73
2023/07/30 09:51:39;;;;;;;15.93;1.70;;;19.80;99.90;;;;;;5062307;28;20020;-73
2023/07/30 09:54:12;;;;;;;8.60;1.58;;;19.80;99.90;;;;;;5062861;28;20074;-73
2023/07/30 09:56:39;;;;;;;11.85;1.92;;;19.80;99.90;;;;;;5062369;28;20031;-73
2023/07/30 09:59:06;;;;;;;10.95;1.70;;;19.90;99.90;;;;;;5060748;28;20127;-73
2023/07/30 10:01:36;;;;;;;10.60;1.65;;;20.00;99.90;;;;;;5060301;28;20044;-72
2023/07/30 10:04:08;;;;;;;10.32;1.48;;;20.00;99.90;;;;;;5058819;28;20033;-72
2023/07/30 10:06:50;;;;;;;7.50;0.95;;;20.00;99.90;;;;;;5055963;28;20024;-72
2023/07/30 10:09:17;;;;;;;;;;;20.00;99.90;;;;;;5062780;28;20134;-72
2023/07/30 10:11:44;;;;;;;8.48;0.90;;;19.90;99.90;;;;;;5058941;28;19923;-72
2023/07/30 10:14:11;;;;;;;6.35;0.45;;;19.80;99.90;;;;;;5069445;28;20029;-72
2023/07/30 10:16:36;;;;;;;4.18;0.35;;;19.60;99.90;;;;;;5074810;28;20118;-72
2023/07/30 10:19:02;;;;;;;4.18;0.30;;;19.40;99.90;;;;;;5078706;28;20442;-73
2023/07/30 10:21:31;;;;;;;5.28;0.50;;;19.20;99.90;;;;;;5059848;28;20028;-72
2023/07/30 10:24:03;;;;;;;5.03;0.50;;;19.20;99.90;;;;;;5062740;28;20021;-72
2023/07/30 10:26:34;;;;;;;4.53;0.40;;;19.20;99.90;;;;;;5075334;28;20028;-72
2023/07/30 10:29:19;;;;;;;5.20;0.43;;;19.20;99.90;;;;;;5068748;28;20028;-72
2023/07/30 10:31:51;;;;;;;6.82;0.82;;;19.20;99.90;;;;;;5069057;28;20107;-72
2023/07/30 10:34:17;;;;;;;3.67;0.40;;;19.30;99.90;;;;;;5071072;28;20395;-72
2023/07/30 10:36:48;;;;;;;5.78;0.70;;;19.40;99.90;;;;;;5073371;28;20048;-73
2023/07/30 10:39:16;;;;;;;3.13;0.40;;;19.40;99.90;;;;;;5070504;28;20121;-72
2023/07/30 10:41:48;;;;;;;3.13;0.43;;;19.60;99.90;;;;;;5067389;28;20020;-72
2023/07/30 10:44:25;;;;;;;4.72;0.40;;;19.70;99.90;;;;;;5068030;28;20021;-72
2023/07/30 10:46:52;;;;;;;4.78;0.43;;;19.80;99.90;;;;;;5081111;28;20020;-72
2023/07/30 10:49:18;;;;;;;10.32;0.80;;;19.80;99.90;;;;;;5069058;28;20029;-72
2023/07/30 10:51:44;;;;;;;5.88;0.80;;;19.90;99.90;;;;;;5062137;28;20033;-72
2023/07/30 10:54:09;;;;;;;4.40;0.55;;;19.90;99.90;;;;;;5068636;28;20113;-71
2023/07/30 10:56:37;;;;;;;4.60;0.60;;;20.00;99.90;;;;;;5070749;28;20031;-71
2023/07/30 10:59:07;;;;;;;5.50;0.60;;;20.00;99.90;;;;;;5070570;28;20038;-71
2023/07/30 11:01:53;;;;;;;6.65;0.88;;;20.10;99.90;;;;;;5065515;28;20028;-72
2023/07/30 11:04:20;;;;;;;6.10;0.60;;;20.10;99.90;;;;;;5067122;28;20029;-72
2023/07/30 11:06:47;;;;;;;5.60;0.68;;;20.00;99.90;;;;;;5065439;28;20499;-72
2023/07/30 11:09:23;;;;;;;11.40;1.30;;;20.00;99.90;;;;;;5078099;28;20031;-72
2023/07/30 11:11:50;;;;;;;7.88;0.73;;;20.10;99.90;;;;;;5076952;28;20074;-72
2023/07/30 11:14:17;;;;;;;8.32;0.80;;;20.20;99.90;;;;;;5069547;28;20060;-72
2023/07/30 11:16:54;;;;;;;8.93;0.75;;;20.40;99.90;;;;;;5069788;28;20028;-73
2023/07/30 11:19:20;;;;;;;5.95;0.75;;;20.60;99.90;;;;;;5070311;28;20036;-72
2023/07/30 11:21:47;;;;;;;10.32;0.90;;;20.70;99.90;;;;;;5069358;28;20033;-72
2023/07/30 11:24:13;;;;;;;7.47;0.60;;;20.80;99.90;;;;;;5069615;28;20031;-72
2023/07/30 11:26:38;;;;;;;7.30;0.75;;;20.90;99.90;;;;;;5079661;28;20024;-72
2023/07/30 11:29:22;;;;;;;7.53;1.13;;;21.00;99.90;;;;;;5048716;28;20373;-72
2023/07/30 11:31:47;;;;;;;9.20;0.90;;;21.20;99.90;;;;;;5074205;28;20043;-72
2023/07/30 11:34:14;;;;;;;7.28;0.68;;;21.30;99.90;;;;;;5071399;28;20100;-72
2023/07/30 11:36:41;;;;;;;5.93;0.80;;;21.30;99.90;;;;;;5063526;28;20049;-73
2023/07/30 11:39:07;;;;;;;5.55;0.60;;;21.10;99.90;;;;;;5064031;28;20695;-71
2023/07/30 11:41:33;;;;;;;6.18;0.50;;;20.90;99.90;;;;;;5073870;28;20032;-71
2023/07/30 11:43:59;;;;;;;6.45;0.50;;;20.80;99.90;;;;;;5063704;28;20024;-71
2023/07/30 11:46:24;;;;;;;7.25;0.57;;;20.60;99.90;;;;;;5069304;28;20025;-72
2023/07/30 11:48:53;;;;;;;6.93;0.57;;;20.60;99.90;;;;;;5068459;28;20035;-71
2023/07/30 11:51:24;;;;;;;7.95;0.50;;;20.50;99.90;;;;;;5073139;28;20512;-72
2023/07/30 11:53:58;;;;;;;5.25;0.55;;;20.50;99.90;;;;;;5067919;28;20025;-72
2023/07/30 11:56:29;;;;;;;5.65;0.50;;;20.70;99.90;;;;;;5071045;28;20036;-72
2023/07/30 11:59:00;;;;;;;6.05;0.63;;;21.10;99.90;;;;;;5082400;28;20093;-72
2023/07/30 12:01:28;;;;;;;7.28;1.05;;;21.60;99.90;;;;;;5074230;28;20028;-72
2023/07/30 12:03:59;;;;;;;7.53;0.70;;;21.90;99.90;;;;;;5078381;28;20043;-72
2023/07/30 12:06:38;;;;;;;7.43;0.60;;;22.10;99.90;;;;;;5055609;28;20029;-72
2023/07/30 12:09:15;;;;;;;4.15;0.82;;;22.30;99.90;;;;;;5072375;28;20028;-72
2023/07/30 12:11:56;;;;;;;6.60;0.43;;;22.40;99.90;;;;;;5060342;28;20132;-71
2023/07/30 12:14:29;;;;;;;3.58;0.40;;;22.40;99.90;;;;;;5059632;28;20104;-71
2023/07/30 12:16:55;;;;;;;3.28;0.40;;;22.30;99.90;;;;;;5068990;28;20089;-72
2023/07/30 12:19:21;;;;;;;4.43;0.40;;;22.20;99.90;;;;;;5053026;28;20086;-72
2023/07/30 12:21:46;;;;;;;4.40;0.40;;;22.20;99.20;;;;;;5083250;28;20024;-72
2023/07/30 12:24:12;;;;;;;5.80;0.30;;;22.20;99.50;;;;;;5082673;28;20036;-73
2023/07/30 12:26:37;;;;;;;4.03;0.30;;;22.20;99.10;;;;;;5081421;28;20499;-71
2023/07/30 12:29:03;;;;;;;3.15;0.40;;;22.40;98.10;;;;;;5087611;28;20430;-72
2023/07/30 12:31:29;;;;;;;2.55;0.30;;;22.50;96.90;;;;;;5069401;28;20107;-72
2023/07/30 12:33:55;;;;;;;3.95;0.40;;;22.50;96.30;;;;;;5075055;28;20032;-72
2023/07/30 12:36:20;;;;;;;3.30;0.30;;;22.40;95.90;;;;;;5074564;28;20033;-72